createdAt,value
2022-11-13T00:01:22.285Z,47.6470
2022-11-13T00:02:24.518Z,47.5940
2022-11-13T00:03:26.637Z,47.5160
2022-11-13T00:04:28.880Z,47.5100
2022-11-13T00:05:31.100Z,47.4350
2022-11-13T00:06:33.401Z,47.3980
2022-11-13T00:07:35.656Z,47.4170
2022-11-13T00:08:37.934Z,47.4700
2022-11-13T00:09:38.256Z,47.5030
2022-11-13T00:10:40.467Z,47.5860
2022-11-13T00:11:42.806Z,47.5660
2022-11-13T00:12:45.146Z,47.5110
2022-11-13T00:13:47.595Z,47.5050
2022-11-13T00:14:50.083Z,47.4360
2022-11-13T00:15:49.998Z,47.4220
2022-11-13T00:16:52.319Z,47.3990
2022-11-13T00:17:54.642Z,47.3590
2022-11-13T00:18:56.951Z,47.3610
2022-11-13T00:19:59.545Z,47.3750
2022-11-13T00:21:01.583Z,47.2960
2022-11-13T00:22:01.775Z,47.2390
2022-11-13T00:23:04.098Z,47.1930
2022-11-13T00:24:06.433Z,47.2660
2022-11-13T00:25:09.044Z,47.2330
2022-11-13T00:26:11.104Z,47.2270
2022-11-13T00:27:11.297Z,47.1360
2022-11-13T00:28:13.616Z,47.1710
2022-11-13T00:29:16.023Z,47.1870
2022-11-13T00:30:19.612Z,47.2370
2022-11-13T00:31:20.572Z,47.2390
2022-11-13T00:32:22.907Z,47.2430
2022-11-13T00:33:45.428Z,47.2270
2022-11-13T00:34:46.660Z,47.2450
2022-11-13T00:35:25.661Z,47.2270
2022-11-13T00:36:27.943Z,47.1700
2022-11-13T00:37:28.128Z,47.0960
2022-11-13T00:38:30.680Z,47.0830
2022-11-13T00:39:32.813Z,47.0430
2022-11-13T00:40:35.279Z,47.0410
2022-11-13T00:41:35.307Z,46.9800
2022-11-13T00:42:37.611Z,46.9660
2022-11-13T00:43:39.932Z,46.9600
2022-11-13T00:44:42.363Z,46.9500
2022-11-13T00:45:44.575Z,46.9120
2022-11-13T00:46:46.879Z,46.9800
2022-11-13T00:47:47.055Z,46.9600
2022-11-13T00:48:49.374Z,46.9940
2022-11-13T00:49:51.706Z,47.0760
2022-11-13T00:50:54.049Z,47.0190
2022-11-13T00:51:56.314Z,46.9720
2022-11-13T00:52:58.616Z,46.9460
2022-11-13T00:53:58.803Z,46.9620
2022-11-13T00:55:01.138Z,46.9340
2022-11-13T00:56:03.520Z,46.9160
2022-11-13T00:57:05.809Z,46.8170
2022-11-13T00:58:08.144Z,46.8710
2022-11-13T00:59:08.338Z,46.9200
2022-11-13T01:00:10.786Z,46.9890
2022-11-13T01:01:13.177Z,46.9630
2022-11-13T01:02:15.360Z,46.8690
2022-11-13T01:03:17.665Z,46.8710
2022-11-13T01:04:19.957Z,46.8130
2022-11-13T01:05:20.119Z,46.8310
2022-11-13T01:06:22.479Z,46.7940
2022-11-13T01:07:24.764Z,46.7560
2022-11-13T01:08:27.674Z,46.7100
2022-11-13T01:09:29.437Z,46.6690
2022-11-13T01:10:31.790Z,46.6290
2022-11-13T01:11:32.036Z,46.6750
2022-11-13T01:12:34.322Z,46.7810
2022-11-13T01:13:36.634Z,46.8170
2022-11-13T01:14:38.967Z,46.7610
2022-11-13T01:15:39.397Z,46.7550
2022-11-13T01:16:41.422Z,46.7810
2022-11-13T01:17:43.703Z,46.6730
2022-11-13T01:18:46.022Z,46.6670
2022-11-13T01:19:48.324Z,46.6110
2022-11-13T01:20:50.608Z,46.5760
2022-11-13T01:21:50.812Z,46.6040
2022-11-13T01:22:53.094Z,46.6050
2022-11-13T01:23:55.417Z,46.6380
2022-11-13T01:24:57.688Z,46.5770
2022-11-13T01:25:59.923Z,46.6120
2022-11-13T01:27:02.231Z,46.5750
2022-11-13T01:28:04.504Z,46.5870
2022-11-13T01:29:04.647Z,46.4860
2022-11-13T01:30:06.968Z,46.5250
2022-11-13T01:31:09.395Z,46.5590
2022-11-13T01:32:11.654Z,46.5530
2022-11-13T01:33:13.895Z,46.4970
2022-11-13T01:34:16.158Z,46.3970
2022-11-13T01:35:18.403Z,46.3570
2022-11-13T01:36:18.570Z,46.3630
2022-11-13T01:37:20.899Z,46.3280
2022-11-13T01:38:23.122Z,46.3630
2022-11-13T01:39:25.420Z,46.3750
2022-11-13T01:40:27.711Z,46.3740
2022-11-13T01:41:30.034Z,46.3240
2022-11-13T01:42:32.323Z,46.3670
2022-11-13T01:43:32.400Z,46.3880
2022-11-13T01:44:34.687Z,46.4080
2022-11-13T01:45:36.964Z,46.4160
2022-11-13T01:46:39.314Z,46.3050
2022-11-13T01:47:41.497Z,46.3410
2022-11-13T01:48:43.710Z,46.3350
2022-11-13T01:49:45.956Z,46.3540
2022-11-13T01:50:48.193Z,46.3510
2022-11-13T01:51:48.326Z,46.3290
2022-11-13T01:52:50.664Z,46.3390
2022-11-13T01:53:52.903Z,46.2650
2022-11-13T01:54:55.191Z,46.3130
2022-11-13T01:55:57.419Z,46.3410
2022-11-13T01:56:59.693Z,46.2890
2022-11-13T01:58:01.977Z,46.2390
2022-11-13T01:59:02.106Z,46.2240
2022-11-13T02:00:04.416Z,46.1960
2022-11-13T02:01:06.740Z,46.2240
2022-11-13T02:02:09.214Z,46.1570
2022-11-13T02:03:11.546Z,46.1250
2022-11-13T02:04:13.691Z,46.1840
2022-11-13T02:05:16.001Z,46.1300
2022-11-13T02:06:16.193Z,46.1300
2022-11-13T02:07:18.654Z,46.1700
2022-11-13T02:08:20.888Z,46.2020
2022-11-13T02:09:23.139Z,46.1340
2022-11-13T02:10:25.389Z,46.1280
2022-11-13T02:11:27.667Z,46.1360
2022-11-13T02:12:27.777Z,46.1580
2022-11-13T02:13:30.036Z,46.1980
2022-11-13T02:14:32.312Z,46.1980
2022-11-13T02:15:34.599Z,46.2240
2022-11-13T02:16:36.880Z,46.1740
2022-11-13T02:17:39.302Z,46.1680
2022-11-13T02:18:41.521Z,46.1800
2022-11-13T02:19:41.633Z,46.1920
2022-11-13T02:20:43.919Z,46.1240
2022-11-13T02:21:46.208Z,46.0820
2022-11-13T02:22:48.493Z,46.0560
2022-11-13T02:23:48.657Z,46.0310
2022-11-13T02:24:54.594Z,46.1000
2022-11-13T02:25:53.162Z,46.2300
2022-11-13T02:26:53.282Z,46.2450
2022-11-13T02:27:55.560Z,46.3070
2022-11-13T02:28:57.871Z,46.3330
2022-11-13T02:30:00.144Z,46.3390
2022-11-13T02:31:02.412Z,46.3540
2022-11-13T02:32:04.712Z,46.4340
2022-11-13T02:33:07.119Z,46.3940
2022-11-13T02:34:07.186Z,46.4660
2022-11-13T02:35:09.452Z,46.5230
2022-11-13T02:37:14.123Z,46.4320
2022-11-13T02:38:16.362Z,46.3920
2022-11-13T02:39:18.735Z,46.3700
2022-11-13T02:40:20.956Z,46.2960
2022-11-13T02:41:23.278Z,46.3010
2022-11-13T02:42:25.606Z,46.4340
2022-11-13T02:43:27.929Z,46.4000
2022-11-13T02:44:28.239Z,46.4080
2022-11-13T02:45:30.433Z,46.4160
2022-11-13T02:46:32.729Z,46.4000
2022-11-13T02:47:34.969Z,46.3700
2022-11-13T02:48:37.402Z,46.3790
2022-11-13T02:49:39.739Z,46.3670
2022-11-13T02:50:39.786Z,46.4220
2022-11-13T02:51:42.053Z,46.3880
2022-11-13T02:52:44.454Z,46.3850
2022-11-13T02:53:46.695Z,46.4140
2022-11-13T02:54:49.036Z,46.3880
2022-11-13T02:55:51.271Z,46.3700
2022-11-13T02:56:53.557Z,46.3390
2022-11-13T02:57:53.722Z,46.3130
2022-11-13T02:58:56.054Z,46.2890
2022-11-13T02:59:58.500Z,46.3050
2022-11-13T03:01:00.703Z,46.3790
2022-11-13T03:02:03.117Z,46.3920
2022-11-13T03:03:05.300Z,46.3790
2022-11-13T03:04:05.600Z,46.3590
2022-11-13T03:05:13.027Z,46.3740
2022-11-13T03:06:10.086Z,46.4140
2022-11-13T03:07:12.422Z,46.4080
2022-11-13T03:08:14.695Z,46.4000
2022-11-13T03:09:17.004Z,46.3980
2022-11-13T03:10:17.227Z,46.3590
2022-11-13T03:11:19.564Z,46.3170
2022-11-13T03:12:21.818Z,46.2770
2022-11-13T03:13:22.948Z,46.2770
2022-11-13T03:14:24.267Z,46.3350
2022-11-13T03:15:26.563Z,46.2590
2022-11-13T03:16:28.840Z,46.2180
2022-11-13T03:17:31.179Z,46.2550
2022-11-13T03:18:33.517Z,46.3170
2022-11-13T03:19:33.808Z,46.3130
2022-11-13T03:20:36.075Z,46.2670
2022-11-13T03:21:38.243Z,46.2730
2022-11-13T03:22:40.547Z,46.2550
2022-11-13T03:23:42.852Z,46.2430
2022-11-13T03:25:28.251Z,46.2490
2022-11-13T03:26:30.435Z,46.2080
2022-11-13T03:27:32.611Z,46.1280
2022-11-13T03:28:34.887Z,46.1280
2022-11-13T03:29:37.165Z,46.1040
2022-11-13T03:30:39.440Z,46.1340
2022-11-13T03:31:41.879Z,46.1780
2022-11-13T03:32:44.051Z,46.1560
2022-11-13T03:33:44.225Z,46.1340
2022-11-13T03:34:46.647Z,46.1800
2022-11-13T03:35:48.850Z,46.1800
2022-11-13T03:36:51.221Z,46.2020
2022-11-13T03:37:53.520Z,46.2300
2022-11-13T03:38:55.833Z,46.2100
2022-11-13T03:39:56.005Z,46.1180
2022-11-13T03:40:58.295Z,46.0750
2022-11-13T03:42:00.688Z,46.0650
2022-11-13T03:43:02.942Z,46.0470
2022-11-13T03:44:05.310Z,46.0250
2022-11-13T03:45:05.516Z,46.0430
2022-11-13T03:46:07.873Z,46.0500
2022-11-13T03:47:10.233Z,46.0430
2022-11-13T03:48:12.568Z,45.9670
2022-11-13T03:49:14.907Z,45.9470
2022-11-13T03:50:15.201Z,45.9870
2022-11-13T03:51:17.420Z,46.0430
2022-11-13T03:52:19.810Z,46.0650
2022-11-13T03:53:22.066Z,45.9750
2022-11-13T03:54:24.399Z,46.0070
2022-11-13T03:55:26.739Z,45.9690
2022-11-13T03:56:26.878Z,45.9330
2022-11-13T03:57:29.218Z,45.9510
2022-11-13T03:58:31.735Z,45.9970
2022-11-13T03:59:33.746Z,46.0370
2022-11-13T04:00:36.000Z,46.0370
2022-11-13T04:01:38.298Z,45.9790
2022-11-13T04:02:38.484Z,45.9270
2022-11-13T04:03:40.708Z,45.9670
2022-11-13T04:04:42.997Z,45.9890
2022-11-13T04:05:45.391Z,46.0300
2022-11-13T04:06:47.583Z,46.0760
2022-11-13T04:07:49.995Z,45.9850
2022-11-13T04:08:52.145Z,45.9170
2022-11-13T04:09:52.274Z,45.9170
2022-11-13T04:10:54.552Z,45.9230
2022-11-13T04:11:56.846Z,45.9050
2022-11-13T04:12:59.283Z,45.8860
2022-11-13T04:14:01.449Z,45.9510
2022-11-13T04:15:03.752Z,45.9610
2022-11-13T04:16:06.033Z,45.9860
2022-11-13T04:17:06.163Z,46.0180
2022-11-13T04:18:08.625Z,46.0400
2022-11-13T04:19:10.757Z,45.9410
2022-11-13T04:20:13.038Z,45.8830
2022-11-13T04:21:15.431Z,45.8530
2022-11-13T04:22:17.613Z,45.8580
2022-11-13T04:23:19.925Z,45.9050
2022-11-13T04:24:20.044Z,45.9680
2022-11-13T04:25:22.328Z,45.9270
2022-11-13T04:26:24.621Z,45.8810
2022-11-13T04:27:26.929Z,45.9050
2022-11-13T04:28:29.539Z,45.8770
2022-11-13T04:29:31.535Z,45.8690
2022-11-13T04:30:33.832Z,45.9430
2022-11-13T04:31:33.980Z,45.9340
2022-11-13T04:32:36.272Z,45.8870
2022-11-13T04:33:39.619Z,45.9310
2022-11-13T04:34:40.853Z,45.9370
2022-11-13T04:35:43.113Z,45.9620
2022-11-13T04:36:43.387Z,45.9030
2022-11-13T04:37:45.552Z,45.8410
2022-11-13T04:38:47.837Z,45.7680
2022-11-13T04:39:50.083Z,45.8310
2022-11-13T04:40:52.373Z,45.7970
2022-11-13T04:41:55.636Z,45.7180
2022-11-13T04:42:56.823Z,45.7890
2022-11-13T04:45:16.572Z,45.7450
2022-11-13T04:46:18.745Z,45.7510
2022-11-13T04:47:21.010Z,45.7770
2022-11-13T04:48:23.296Z,45.7790
2022-11-13T04:49:25.566Z,45.7510
2022-11-13T04:50:25.840Z,45.6740
2022-11-13T04:51:28.002Z,45.7080
2022-11-13T04:52:30.414Z,45.6580
2022-11-13T04:53:32.578Z,45.5730
2022-11-13T04:55:07.279Z,45.7230
2022-11-13T04:56:09.517Z,45.6870
2022-11-13T04:57:11.751Z,45.6700
2022-11-13T04:58:14.043Z,45.6040
2022-11-13T04:59:16.366Z,45.5960
2022-11-13T05:00:18.655Z,45.6220
2022-11-13T05:01:21.082Z,45.6000
2022-11-13T05:02:21.046Z,45.6520
2022-11-13T05:03:23.363Z,45.7150
2022-11-13T05:04:25.667Z,45.7490
2022-11-13T05:05:27.960Z,45.7610
2022-11-13T05:06:30.402Z,45.7570
2022-11-13T05:07:32.526Z,45.7690
2022-11-13T05:08:34.877Z,45.7830
2022-11-13T05:09:34.858Z,45.7570
2022-11-13T05:10:37.098Z,45.7690
2022-11-13T05:11:39.429Z,45.7670
2022-11-13T05:12:41.651Z,45.7490
2022-11-13T05:13:43.922Z,45.7550
2022-11-13T05:14:46.210Z,45.7450
2022-11-13T05:15:48.492Z,45.7890
2022-11-13T05:16:50.930Z,45.7890
2022-11-13T05:17:51.020Z,45.7580
2022-11-13T05:18:53.408Z,45.6880
2022-11-13T05:19:55.732Z,45.6760
2022-11-13T05:20:58.081Z,45.7040
2022-11-13T05:22:00.452Z,45.6780
2022-11-13T05:23:00.631Z,45.6580
2022-11-13T05:24:03.094Z,45.7120
2022-11-13T05:25:05.297Z,45.7040
2022-11-13T05:26:07.620Z,45.7200
2022-11-13T05:27:15.848Z,45.7510
2022-11-13T05:28:12.241Z,45.7850
2022-11-13T05:29:14.539Z,45.7670
2022-11-13T05:30:16.768Z,45.7180
2022-11-13T05:31:19.067Z,45.7550
2022-11-13T05:33:08.871Z,45.8310
2022-11-13T05:34:10.912Z,45.7670
2022-11-13T05:35:13.124Z,45.7180
2022-11-13T05:36:15.333Z,45.6920
2022-11-13T05:37:17.533Z,45.7490
2022-11-13T05:38:19.797Z,45.7120
2022-11-13T05:39:19.968Z,45.6600
2022-11-13T05:40:22.034Z,45.7140
2022-11-13T05:41:24.199Z,45.7790
2022-11-13T05:42:26.335Z,45.7160
2022-11-13T05:43:28.519Z,45.6200
2022-11-13T05:44:30.715Z,45.6300
2022-11-13T05:45:32.946Z,45.6540
2022-11-13T05:46:35.175Z,45.6140
2022-11-13T05:47:37.389Z,45.6020
2022-11-13T05:48:39.724Z,45.5490
2022-11-13T05:49:41.848Z,45.4430
2022-11-13T05:50:44.132Z,45.4950
2022-11-13T05:51:46.378Z,45.4650
2022-11-13T05:52:48.649Z,45.5110
2022-11-13T05:53:48.815Z,45.5030
2022-11-13T05:54:51.144Z,45.5030
2022-11-13T05:55:53.300Z,45.4830
2022-11-13T05:56:55.599Z,45.4590
2022-11-13T05:57:57.911Z,45.5500
2022-11-13T05:59:00.300Z,45.6520
2022-11-13T06:00:02.558Z,45.6950
2022-11-13T06:01:02.735Z,45.6220
2022-11-13T06:02:05.088Z,40.0350
2022-11-13T06:03:07.441Z,42.4520
2022-11-13T06:04:09.895Z,44.4880
2022-11-13T06:05:12.245Z,45.0180
2022-11-13T06:06:14.648Z,44.6490
2022-11-13T06:07:17.130Z,44.6330
2022-11-13T06:08:17.365Z,46.2490
2022-11-13T06:09:19.969Z,46.6100
2022-11-13T06:10:22.444Z,47.6500
2022-11-13T06:11:24.838Z,49.1440
2022-11-13T06:12:25.196Z,49.5370
2022-11-13T06:13:27.722Z,51.0240
2022-11-13T06:14:28.143Z,51.8300
2022-11-13T06:15:30.658Z,52.5750
2022-11-13T06:16:33.210Z,52.5410
2022-11-13T06:17:33.595Z,52.4640
2022-11-13T06:18:36.163Z,53.4630
2022-11-13T06:19:36.739Z,54.5150
2022-11-13T06:20:39.157Z,55.0200
2022-11-13T06:23:08.126Z,54.3180
2022-11-13T06:24:10.496Z,55.6850
2022-11-13T06:25:13.102Z,55.8780
2022-11-13T06:26:15.558Z,56.0010
2022-11-13T06:27:15.751Z,54.7180
2022-11-13T06:28:18.187Z,53.2030
2022-11-13T06:29:20.651Z,52.1760
2022-11-13T06:30:21.000Z,51.4170
2022-11-13T06:31:23.416Z,49.9640
2022-11-13T06:32:25.823Z,48.8540
2022-11-13T06:33:28.267Z,48.1700
2022-11-13T06:34:28.511Z,47.5930
2022-11-13T06:35:30.929Z,46.9470
2022-11-13T06:36:33.274Z,46.2710
2022-11-13T06:37:35.690Z,46.0350
2022-11-13T06:38:36.037Z,45.7340
2022-11-13T06:39:38.325Z,45.4730
2022-11-13T06:40:40.830Z,45.1270
2022-11-13T06:41:43.143Z,45.0420
2022-11-13T06:42:43.201Z,44.7330
2022-11-13T06:43:45.541Z,44.5170
2022-11-13T06:44:47.879Z,44.1610
2022-11-13T06:45:50.367Z,43.9640
2022-11-13T06:46:52.555Z,44.0030
2022-11-13T06:47:54.896Z,43.8220
2022-11-13T06:48:55.080Z,43.5170
2022-11-13T06:49:57.427Z,43.4170
2022-11-13T06:50:59.920Z,43.2890
2022-11-13T06:52:02.127Z,43.2820
2022-11-13T06:53:04.460Z,43.2960
2022-11-13T06:54:04.664Z,43.1950
2022-11-13T06:55:07.002Z,43.0800
2022-11-13T06:56:09.386Z,42.9730
2022-11-13T06:57:11.827Z,42.9470
2022-11-13T06:58:14.042Z,42.9230
2022-11-13T06:59:14.220Z,42.8820
2022-11-13T07:00:16.579Z,42.8920
2022-11-13T07:01:18.977Z,42.7830
2022-11-13T07:02:21.218Z,42.7970
2022-11-13T07:03:21.389Z,42.8600
2022-11-13T07:04:22.590Z,42.9390
2022-11-13T07:05:24.862Z,43.0520
2022-11-13T07:06:26.272Z,43.0950
2022-11-13T07:07:28.544Z,43.0520
2022-11-13T07:08:29.120Z,43.0060
2022-11-13T07:09:31.000Z,43.0080
2022-11-13T07:10:33.328Z,42.8830
2022-11-13T07:11:35.671Z,42.9500
2022-11-13T07:12:38.068Z,42.8180
2022-11-13T07:13:40.257Z,42.8430
2022-11-13T07:14:40.418Z,42.9340
2022-11-13T07:15:42.732Z,43.0250
2022-11-13T07:17:08.102Z,43.1450
2022-11-13T07:17:47.355Z,43.1710
2022-11-13T07:18:49.665Z,43.1730
2022-11-13T07:19:49.799Z,43.1950
2022-11-13T07:20:52.094Z,43.2540
2022-11-13T07:21:54.426Z,43.3090
2022-11-13T07:22:56.716Z,43.3250
2022-11-13T07:23:56.863Z,43.3700
2022-11-13T07:24:59.145Z,43.4550
2022-11-13T07:26:01.443Z,43.4210
2022-11-13T07:27:03.763Z,43.4670
2022-11-13T07:28:06.169Z,43.5680
2022-11-13T07:29:08.355Z,43.6350
2022-11-13T07:30:10.637Z,43.2690
2022-11-13T07:31:12.954Z,43.4750
2022-11-13T07:32:15.267Z,43.6870
2022-11-13T07:33:15.361Z,43.7740
2022-11-13T07:34:17.661Z,43.7680
2022-11-13T07:35:19.960Z,43.8780
2022-11-13T07:36:22.268Z,43.8990
2022-11-13T07:37:24.662Z,43.9290
2022-11-13T07:38:27.189Z,43.8650
2022-11-13T07:39:26.998Z,43.8250
2022-11-13T07:40:29.404Z,43.9110
2022-11-13T07:41:31.580Z,43.9620
2022-11-13T07:42:33.921Z,43.9740
2022-11-13T07:43:36.295Z,44.0300
2022-11-13T07:44:54.184Z,44.0400
2022-11-13T07:45:40.842Z,44.0920
2022-11-13T07:46:41.027Z,44.0600
2022-11-13T07:47:43.374Z,44.1870
2022-11-13T07:48:43.525Z,44.1190
2022-11-13T07:49:45.846Z,44.1490
2022-11-13T07:50:48.188Z,44.1510
2022-11-13T07:51:48.369Z,43.7660
2022-11-13T07:52:50.802Z,43.8310
2022-11-13T07:53:52.997Z,44.1030
2022-11-13T07:54:55.322Z,44.1150
2022-11-13T07:55:57.686Z,44.1690
2022-11-13T07:57:00.000Z,44.2180
2022-11-13T07:58:00.319Z,44.3040
2022-11-13T07:59:02.656Z,44.3260
2022-11-13T08:00:04.935Z,44.3020
2022-11-13T08:01:07.313Z,44.2920
2022-11-13T08:02:09.507Z,44.2820
2022-11-13T08:03:09.816Z,44.3080
2022-11-13T08:04:12.008Z,44.2940
2022-11-13T08:06:36.062Z,44.4630
2022-11-13T08:07:36.171Z,44.4410
2022-11-13T08:08:38.530Z,44.4290
2022-11-13T08:09:40.656Z,44.4170
2022-11-13T08:10:42.953Z,44.4230
2022-11-13T08:11:45.271Z,44.4570
2022-11-13T08:12:47.574Z,44.4570
2022-11-13T08:13:50.073Z,44.4770
2022-11-13T08:14:50.095Z,44.5490
2022-11-13T08:15:52.285Z,44.5720
2022-11-13T08:16:54.609Z,44.6220
2022-11-13T08:17:56.937Z,44.6300
2022-11-13T08:18:59.290Z,44.6300
2022-11-13T08:20:01.515Z,44.6860
2022-11-13T08:21:03.847Z,44.6500
2022-11-13T08:22:03.979Z,44.7160
2022-11-13T08:23:06.284Z,44.7020
2022-11-13T08:24:08.754Z,44.6740
2022-11-13T08:25:10.957Z,44.7040
2022-11-13T08:26:13.252Z,44.3450
2022-11-13T08:27:15.510Z,44.5300
2022-11-13T08:28:15.637Z,44.6400
2022-11-13T08:29:17.974Z,44.6360
2022-11-13T08:30:20.304Z,44.6720
2022-11-13T08:31:22.468Z,44.7310
2022-11-13T08:32:24.769Z,44.6790
2022-11-13T08:33:27.030Z,44.6990
2022-11-13T08:34:29.349Z,44.7210
2022-11-13T08:35:31.666Z,44.7250
2022-11-13T08:36:31.742Z,44.7390
2022-11-13T08:37:34.022Z,44.7850
2022-11-13T08:38:36.301Z,44.7510
2022-11-13T08:39:38.614Z,44.8190
2022-11-13T08:40:38.711Z,44.8390
2022-11-13T08:41:40.993Z,44.8730
2022-11-13T08:42:43.201Z,44.8570
2022-11-13T08:43:43.331Z,44.8690
2022-11-13T08:44:45.657Z,44.8690
2022-11-13T08:45:48.025Z,44.8690
2022-11-13T08:46:50.186Z,44.8470
2022-11-13T08:47:52.473Z,44.8730
2022-11-13T08:48:54.755Z,44.9250
2022-11-13T08:49:55.170Z,44.8990
2022-11-13T08:50:57.170Z,44.9390
2022-11-13T08:51:59.430Z,44.9090
2022-11-13T08:53:01.676Z,44.9470
2022-11-13T08:54:03.896Z,44.9270
2022-11-13T08:55:06.283Z,45.0160
2022-11-13T08:56:08.380Z,45.1200
2022-11-13T08:57:10.664Z,45.1360
2022-11-13T08:58:12.895Z,45.1420
2022-11-13T08:59:13.003Z,45.2240
2022-11-13T09:00:15.539Z,45.2500
2022-11-13T09:01:17.652Z,45.1760
2022-11-13T09:02:19.756Z,45.1720
2022-11-13T09:03:22.047Z,45.2060
2022-11-13T09:04:24.295Z,45.2240
2022-11-13T09:05:26.584Z,45.2340
2022-11-13T09:06:28.849Z,45.2080
2022-11-13T09:07:31.143Z,45.1940
2022-11-13T09:08:31.483Z,45.2540
2022-11-13T09:09:33.536Z,45.2180
2022-11-13T09:10:35.850Z,45.2800
2022-11-13T09:11:38.084Z,45.2980
2022-11-13T09:12:40.352Z,45.2640
2022-11-13T09:13:45.132Z,45.1490
2022-11-13T09:14:42.763Z,45.2510
2022-11-13T09:15:45.076Z,45.2760
2022-11-13T09:16:47.433Z,45.3000
2022-11-13T09:17:49.671Z,45.2600
2022-11-13T09:18:51.884Z,44.5610
2022-11-13T09:19:54.165Z,42.2960
2022-11-13T09:20:56.484Z,40.8520
2022-11-13T09:21:56.592Z,41.8080
2022-11-13T09:22:58.967Z,42.4530
2022-11-13T09:24:01.329Z,43.5990
2022-11-13T09:25:03.732Z,45.2860
2022-11-13T09:26:06.199Z,45.4370
2022-11-13T09:27:06.268Z,45.2520
2022-11-13T09:28:08.592Z,44.9600
2022-11-13T09:29:10.945Z,44.6590
2022-11-13T09:30:13.285Z,44.5650
2022-11-13T09:31:15.645Z,44.2260
2022-11-13T09:32:15.907Z,43.7390
2022-11-13T09:33:18.131Z,44.5210
2022-11-13T09:34:20.458Z,44.2020
2022-11-13T09:35:22.784Z,44.2680
2022-11-13T09:36:25.130Z,44.0920
2022-11-13T09:37:27.392Z,43.7800
2022-11-13T09:38:27.874Z,43.1140
2022-11-13T09:39:29.894Z,42.4380
2022-11-13T09:40:32.223Z,42.8560
2022-11-13T09:41:34.599Z,43.2660
2022-11-13T09:42:36.891Z,43.4540
2022-11-13T09:43:39.226Z,43.3770
2022-11-13T09:44:41.553Z,43.3860
2022-11-13T09:45:43.882Z,43.4380
2022-11-13T09:46:46.249Z,43.4260
2022-11-13T09:47:48.666Z,43.4280
2022-11-13T09:48:50.887Z,43.4770
2022-11-13T09:49:51.089Z,43.5520
2022-11-13T09:50:53.467Z,43.5320
2022-11-13T09:51:55.894Z,43.6150
2022-11-13T09:52:58.142Z,43.5260
2022-11-13T09:53:58.307Z,43.6230
2022-11-13T09:55:00.624Z,43.6230
2022-11-13T09:56:02.944Z,43.6780
2022-11-13T09:57:05.403Z,43.7540
2022-11-13T09:58:07.586Z,43.8150
2022-11-13T09:59:09.896Z,43.9220
2022-11-13T10:00:10.065Z,44.0590
2022-11-13T10:01:12.435Z,44.0750
2022-11-13T10:02:14.734Z,44.1260
2022-11-13T10:03:27.964Z,44.1540
2022-11-13T10:04:19.326Z,44.1840
2022-11-13T10:05:21.642Z,44.4910
2022-11-13T10:06:21.817Z,44.5000
2022-11-13T10:07:24.307Z,44.5030
2022-11-13T10:08:26.816Z,44.5270
2022-11-13T10:09:28.805Z,44.4630
2022-11-13T10:10:31.158Z,44.5920
2022-11-13T10:11:31.341Z,44.5480
2022-11-13T10:12:33.701Z,44.5240
2022-11-13T10:13:35.937Z,44.5860
2022-11-13T10:14:38.197Z,44.5820
2022-11-13T10:15:38.345Z,44.4800
2022-11-13T10:16:40.659Z,44.5360
2022-11-13T10:17:43.004Z,44.3690
2022-11-13T10:18:45.389Z,44.3570
2022-11-13T10:19:47.618Z,44.4520
2022-11-13T10:20:49.974Z,44.2890
2022-11-13T10:21:54.820Z,44.3090
2022-11-13T10:22:52.558Z,44.4360
2022-11-13T10:23:54.860Z,44.6770
2022-11-13T10:24:57.201Z,44.5420
2022-11-13T10:25:59.561Z,44.3900
2022-11-13T10:26:59.717Z,44.3780
2022-11-13T10:28:11.420Z,44.4300
2022-11-13T10:29:02.506Z,44.4200
2022-11-13T10:30:07.213Z,44.3100
2022-11-13T10:31:04.894Z,44.2230
2022-11-13T10:32:07.251Z,44.2780
2022-11-13T10:33:09.763Z,44.2600
2022-11-13T10:34:12.101Z,44.4490
2022-11-13T10:35:12.179Z,44.3340
2022-11-13T10:36:14.480Z,44.3280
2022-11-13T10:37:16.781Z,44.3700
2022-11-13T10:38:19.156Z,44.4020
2022-11-13T10:39:21.462Z,44.7050
2022-11-13T10:40:23.840Z,44.6570
2022-11-13T10:41:24.087Z,44.5970
2022-11-13T10:42:26.480Z,44.3800
2022-11-13T10:43:29.379Z,44.2660
2022-11-13T10:44:31.232Z,44.5310
2022-11-13T10:45:31.440Z,44.5150
2022-11-13T10:46:33.804Z,44.3820
2022-11-13T10:48:02.444Z,44.4130
2022-11-13T10:48:38.687Z,44.3420
2022-11-13T10:49:41.004Z,44.3850
2022-11-13T10:50:41.072Z,44.4350
2022-11-13T10:51:43.433Z,44.5110
2022-11-13T10:52:45.795Z,44.4630
2022-11-13T10:53:46.030Z,44.5110
2022-11-13T10:54:48.353Z,44.4630
2022-11-13T10:55:50.679Z,44.4430
2022-11-13T10:56:52.990Z,44.4550
2022-11-13T10:57:56.469Z,44.4990
2022-11-13T10:58:57.751Z,44.5410
2022-11-13T10:59:57.774Z,44.8620
2022-11-13T11:01:00.217Z,44.8860
2022-11-13T11:02:02.506Z,45.0560
2022-11-13T11:03:04.858Z,45.1420
2022-11-13T11:04:07.238Z,45.1420
2022-11-13T11:05:07.551Z,45.0280
2022-11-13T11:06:09.810Z,45.0900
2022-11-13T11:07:20.226Z,44.9280
2022-11-13T11:08:14.587Z,44.8540
2022-11-13T11:09:14.810Z,44.8180
2022-11-13T11:10:17.145Z,44.7620
2022-11-13T11:11:19.474Z,44.7160
2022-11-13T11:12:27.133Z,45.1100
2022-11-13T11:13:24.159Z,44.7940
2022-11-13T11:14:26.648Z,44.8400
2022-11-13T11:15:28.859Z,44.6120
2022-11-13T11:16:31.218Z,44.8730
2022-11-13T11:17:33.519Z,44.9410
2022-11-13T11:18:35.817Z,45.2030
2022-11-13T11:19:38.121Z,45.2900
2022-11-13T11:20:40.457Z,45.4200
2022-11-13T11:21:42.589Z,45.4680
2022-11-13T11:22:44.851Z,45.2580
2022-11-13T11:23:44.992Z,45.2730
2022-11-13T11:24:47.306Z,45.2510
2022-11-13T11:25:49.483Z,45.1370
2022-11-13T11:26:51.737Z,45.1590
2022-11-13T11:27:54.027Z,45.2630
2022-11-13T11:28:56.323Z,45.1830
2022-11-13T11:29:58.688Z,45.5190
2022-11-13T11:31:00.890Z,45.5690
2022-11-13T11:32:01.025Z,45.5010
2022-11-13T11:33:03.284Z,45.3770
2022-11-13T11:34:05.533Z,45.3250
2022-11-13T11:35:07.794Z,45.2870
2022-11-13T11:36:10.125Z,45.1930
2022-11-13T11:37:12.209Z,45.3890
2022-11-13T11:38:14.469Z,45.3810
2022-11-13T11:39:16.699Z,45.5130
2022-11-13T11:40:18.984Z,45.7470
2022-11-13T11:41:21.167Z,45.8610
2022-11-13T11:42:23.346Z,45.7140
2022-11-13T11:43:23.419Z,45.6580
2022-11-13T11:44:25.666Z,45.6820
2022-11-13T11:45:27.955Z,45.8150
2022-11-13T11:46:30.181Z,45.9230
2022-11-13T11:47:32.436Z,45.8100
2022-11-13T11:48:34.705Z,45.7180
2022-11-13T11:49:36.933Z,45.6090
2022-11-13T11:50:39.191Z,45.7820
2022-11-13T11:51:41.539Z,45.7260
2022-11-13T11:52:41.512Z,45.7980
2022-11-13T11:53:43.759Z,45.5950
2022-11-13T11:54:46.012Z,45.2670
2022-11-13T11:55:48.402Z,44.9690
2022-11-13T11:56:50.515Z,44.8690
2022-11-13T11:57:52.775Z,44.9110
2022-11-13T11:58:55.034Z,44.9950
2022-11-13T11:59:57.274Z,45.1670
2022-11-13T12:00:59.634Z,45.3330
2022-11-13T12:02:01.743Z,45.2410
2022-11-13T12:03:01.857Z,45.2750
2022-11-13T12:04:04.113Z,45.3310
2022-11-13T12:05:06.443Z,45.4110
2022-11-13T12:06:08.610Z,45.4950
2022-11-13T12:07:11.066Z,45.5310
2022-11-13T12:08:13.191Z,45.6180
2022-11-13T12:09:15.484Z,45.5550
2022-11-13T12:10:17.779Z,45.5650
2022-11-13T12:11:18.023Z,45.9090
2022-11-13T12:12:20.124Z,46.2630
2022-11-13T12:13:22.408Z,46.3370
2022-11-13T12:14:24.686Z,46.5330
2022-11-13T12:15:26.957Z,46.1820
2022-11-13T12:16:29.269Z,46.4360
2022-11-13T12:17:31.514Z,46.1810
2022-11-13T12:18:33.770Z,46.5840
2022-11-13T12:19:35.986Z,46.4880
2022-11-13T12:20:36.039Z,46.2900
2022-11-13T12:21:38.366Z,46.1870
2022-11-13T12:22:40.654Z,46.3830
2022-11-13T12:23:42.814Z,46.2920
2022-11-13T12:24:45.065Z,46.2640
2022-11-13T12:25:47.329Z,46.2460
2022-11-13T12:26:49.626Z,46.3850
2022-11-13T12:27:51.882Z,46.2980
2022-11-13T12:28:51.973Z,46.2880
2022-11-13T12:29:54.230Z,46.1100
2022-11-13T12:30:56.463Z,46.2530
2022-11-13T12:31:58.679Z,46.5210
2022-11-13T12:33:00.872Z,46.2410
2022-11-13T12:34:03.184Z,46.2050
2022-11-13T12:35:05.457Z,46.1040
2022-11-13T12:36:07.713Z,46.3540
2022-11-13T12:37:10.038Z,46.1610